createdAt,value
2022-12-13T00:01:47.618Z,17.77
2022-12-13T00:04:15.507Z,21.13
2022-12-13T00:06:43.941Z,30.03
2022-12-13T00:09:14.760Z,21.93
2022-12-13T00:11:43.298Z,17.03
2022-12-13T00:14:11.810Z,14.73
2022-12-13T00:16:40.108Z,15.67
2022-12-13T00:19:07.671Z,16.10
2022-12-13T00:21:35.598Z,15.90
2022-12-13T00:24:06.020Z,12.90
2022-12-13T00:26:34.570Z,16.63
2022-12-13T00:29:04.617Z,18.90
2022-12-13T00:34:20.802Z,26.50
2022-12-13T00:36:49.126Z,17.37
2022-12-13T00:39:17.527Z,21.63
2022-12-13T00:41:46.178Z,20.80
2022-12-13T00:44:14.850Z,16.87
2022-12-13T00:46:43.059Z,14.10
2022-12-13T00:49:12.076Z,18.73
2022-12-13T00:51:41.180Z,18.57
2022-12-13T00:54:10.345Z,15.80
2022-12-13T00:56:38.895Z,16.43
2022-12-13T00:59:06.690Z,16.53
2022-12-13T01:01:36.852Z,14.63
2022-12-13T01:04:05.942Z,20.87
2022-12-13T01:06:36.323Z,20.80
2022-12-13T01:09:06.712Z,17.57
2022-12-13T01:11:34.605Z,15.17
2022-12-13T01:14:03.425Z,18.50
2022-12-13T01:16:31.624Z,14.73
2022-12-13T01:18:59.367Z,16.73
2022-12-13T01:21:27.210Z,20.83
2022-12-13T01:24:05.945Z,13.67
2022-12-13T01:26:34.241Z,25.93
2022-12-13T01:29:02.198Z,33.87
2022-12-13T01:31:29.919Z,33.77
2022-12-13T01:33:58.250Z,17.60
2022-12-13T01:36:27.352Z,18.10
2022-12-13T01:38:58.681Z,18.43
2022-12-13T01:41:28.994Z,13.77
2022-12-13T01:44:03.688Z,13.33
2022-12-13T01:46:34.254Z,13.27
2022-12-13T01:49:20.185Z,12.40
2022-12-13T01:51:56.600Z,20.23
2022-12-13T01:54:33.465Z,17.53
2022-12-13T01:57:06.710Z,19.13
2022-12-13T01:59:36.657Z,17.47
2022-12-13T02:02:06.215Z,21.30
2022-12-13T02:05:01.310Z,24.33
2022-12-13T02:07:32.141Z,18.57
2022-12-13T02:10:01.975Z,24.07
2022-12-13T02:12:33.764Z,16.23
2022-12-13T02:15:08.968Z,14.23
2022-12-13T02:17:53.041Z,11.63
2022-12-13T02:20:38.772Z,15.40
2022-12-13T02:23:30.808Z,13.43
2022-12-13T02:26:16.007Z,11.77
2022-12-13T02:29:09.506Z,11.20
2022-12-13T02:32:06.307Z,10.30
2022-12-13T02:34:55.889Z,9.20
2022-12-13T02:37:25.415Z,11.90
2022-12-13T02:40:11.290Z,12.90
2022-12-13T02:42:45.526Z,11.80
2022-12-13T02:45:21.246Z,11.17
2022-12-13T02:47:52.678Z,10.20
2022-12-13T02:50:22.153Z,10.93
2022-12-13T02:52:51.724Z,10.27
2022-12-13T02:55:21.121Z,11.70
2022-12-13T02:57:50.273Z,9.23
2022-12-13T03:00:27.411Z,12.37
2022-12-13T03:03:15.251Z,12.83
2022-12-13T03:06:33.998Z,11.73
2022-12-13T03:09:11.143Z,14.50
2022-12-13T03:12:12.829Z,12.17
2022-12-13T03:14:55.686Z,17.10
2022-12-13T03:17:26.532Z,18.40
2022-12-13T03:19:54.782Z,21.80
2022-12-13T03:22:24.006Z,20.10
2022-12-13T03:24:53.133Z,22.77
2022-12-13T03:27:20.944Z,21.03
2022-12-13T03:29:48.350Z,24.57
2022-12-13T03:32:16.166Z,19.23
2022-12-13T03:34:45.556Z,18.87
2022-12-13T03:37:15.662Z,20.90
2022-12-13T03:39:43.144Z,20.60
2022-12-13T03:42:10.771Z,18.50
2022-12-13T03:44:38.195Z,19.13
2022-12-13T03:47:05.856Z,20.17
2022-12-13T03:49:35.507Z,21.53
2022-12-13T03:52:03.554Z,22.47
2022-12-13T03:54:30.976Z,17.33
2022-12-13T03:56:58.603Z,16.97
2022-12-13T03:59:27.985Z,15.83
2022-12-13T04:01:55.642Z,18.77
2022-12-13T04:04:23.149Z,20.43
2022-12-13T04:06:50.749Z,20.33
2022-12-13T04:09:17.991Z,18.97
2022-12-13T04:12:05.014Z,17.93
2022-12-13T04:14:32.315Z,19.20
2022-12-13T04:17:00.087Z,20.37
2022-12-13T04:19:27.465Z,16.87
2022-12-13T04:21:55.586Z,18.13
2022-12-13T04:24:31.610Z,20.40
2022-12-13T04:27:01.657Z,16.97
2022-12-13T04:29:33.803Z,19.93
2022-12-13T04:32:04.258Z,25.50
2022-12-13T04:34:37.290Z,16.20
2022-12-13T04:37:06.468Z,15.97
2022-12-13T04:39:34.686Z,18.23
2022-12-13T04:42:03.021Z,17.37
2022-12-13T04:44:36.559Z,16.07
2022-12-13T04:47:05.492Z,17.20
2022-12-13T04:49:33.607Z,16.80
2022-12-13T04:52:02.593Z,14.37
2022-12-13T04:54:36.021Z,17.07
2022-12-13T04:57:10.913Z,16.70
2022-12-13T04:59:38.607Z,17.13
2022-12-13T05:02:08.635Z,17.07
2022-12-13T05:04:36.679Z,18.70
2022-12-13T05:07:04.753Z,17.47
2022-12-13T05:09:32.414Z,15.13
2022-12-13T05:12:01.583Z,16.00
2022-12-13T05:14:32.973Z,16.97
2022-12-13T05:17:02.052Z,14.17
2022-12-13T05:19:31.195Z,15.67
2022-12-13T05:22:01.227Z,18.20
2022-12-13T05:24:31.975Z,15.07
2022-12-13T05:27:00.365Z,14.57
2022-12-13T05:29:28.211Z,15.43
2022-12-13T05:31:56.035Z,14.63
2022-12-13T05:34:23.586Z,23.23
2022-12-13T05:36:51.316Z,18.63
2022-12-13T05:39:28.034Z,20.13
2022-12-13T05:42:01.492Z,15.63
2022-12-13T05:44:32.733Z,13.33
2022-12-13T05:47:02.542Z,15.73
2022-12-13T05:49:31.590Z,15.33
2022-12-13T05:51:59.313Z,15.93
2022-12-13T05:54:26.843Z,16.77
2022-12-13T05:56:54.562Z,14.47
2022-12-13T05:59:22.473Z,15.63
2022-12-13T06:01:50.181Z,18.20
2022-12-13T06:04:22.082Z,24.73
2022-12-13T06:06:52.844Z,25.27
2022-12-13T06:09:21.148Z,15.67
2022-12-13T06:11:49.296Z,17.67
2022-12-13T06:14:22.637Z,16.60
2022-12-13T06:16:52.823Z,16.50
2022-12-13T06:19:24.509Z,17.83
2022-12-13T06:21:54.821Z,16.60
2022-12-13T06:24:23.608Z,15.40
2022-12-13T06:26:52.009Z,16.43
2022-12-13T06:29:23.053Z,17.43
2022-12-13T06:32:03.788Z,16.87
2022-12-13T06:34:35.853Z,17.13
2022-12-13T06:37:07.191Z,18.97
2022-12-13T06:39:35.548Z,17.37
2022-12-13T06:42:08.726Z,20.27
2022-12-13T06:44:36.342Z,20.37
2022-12-13T06:47:11.791Z,20.97
2022-12-13T06:49:43.610Z,22.90
2022-12-13T06:52:14.395Z,18.00
2022-12-13T06:54:43.340Z,18.43
2022-12-13T06:57:12.611Z,18.83
2022-12-13T06:59:40.543Z,23.23
2022-12-13T07:02:15.488Z,24.50
2022-12-13T07:04:53.156Z,22.73
2022-12-13T07:07:20.638Z,22.10
2022-12-13T07:09:47.849Z,19.93
2022-12-13T07:12:15.374Z,18.70
2022-12-13T07:14:42.867Z,18.20
2022-12-13T07:17:11.006Z,19.20
2022-12-13T07:19:38.388Z,18.77
2022-12-13T07:22:06.232Z,21.50
2022-12-13T07:24:35.295Z,20.03
2022-12-13T07:27:03.959Z,22.10
2022-12-13T07:29:31.322Z,19.23
2022-12-13T07:32:01.479Z,20.27
2022-12-13T07:34:30.428Z,22.40
2022-12-13T07:36:58.360Z,25.17
2022-12-13T07:39:28.793Z,27.23
2022-12-13T07:41:56.727Z,28.80
2022-12-13T07:44:25.009Z,21.23
2022-12-13T07:46:53.012Z,20.77
2022-12-13T07:49:20.440Z,24.57
2022-12-13T07:51:49.214Z,23.83
2022-12-13T07:54:16.564Z,24.47
2022-12-13T07:56:44.525Z,25.90
2022-12-13T07:59:13.869Z,23.47
2022-12-13T08:01:41.661Z,21.67
2022-12-13T08:04:10.211Z,18.47
2022-12-13T08:06:39.013Z,32.00
2022-12-13T08:09:06.977Z,32.17
2022-12-13T08:11:34.741Z,21.47
2022-12-13T08:14:02.037Z,25.13
2022-12-13T08:16:30.552Z,36.90
2022-12-13T08:19:03.215Z,31.10
2022-12-13T08:21:58.231Z,26.90
2022-12-13T08:24:28.333Z,22.10
2022-12-13T08:27:01.416Z,18.70
2022-12-13T08:29:33.377Z,22.97
2022-12-13T08:32:11.886Z,35.30
2022-12-13T08:34:42.146Z,33.07
2022-12-13T08:37:09.803Z,26.97
2022-12-13T08:39:38.805Z,20.80
2022-12-13T08:42:16.881Z,23.17
2022-12-13T08:44:47.102Z,49.17
2022-12-13T08:47:22.953Z,31.27
2022-12-13T08:50:03.086Z,57.97
2022-12-13T08:52:39.837Z,24.67
2022-12-13T08:55:10.599Z,20.70
2022-12-13T08:57:40.808Z,20.97
2022-12-13T09:00:11.680Z,22.30
2022-12-13T09:02:39.458Z,26.67
2022-12-13T09:05:09.312Z,26.43
2022-12-13T09:07:39.753Z,18.50
2022-12-13T09:10:26.671Z,23.00
2022-12-13T09:13:01.698Z,18.80
2022-12-13T09:15:34.367Z,18.40
2022-12-13T09:18:04.914Z,32.50
2022-12-13T09:20:40.506Z,19.97
2022-12-13T09:23:13.496Z,20.77
2022-12-13T09:25:44.868Z,18.03
2022-12-13T09:28:20.407Z,27.27
2022-12-13T09:30:48.245Z,32.97
2022-12-13T09:33:17.652Z,22.53
2022-12-13T09:35:57.060Z,21.93
2022-12-13T09:38:24.503Z,47.53
2022-12-13T09:41:02.014Z,29.97
2022-12-13T09:43:42.860Z,19.60
2022-12-13T09:46:34.666Z,17.70
2022-12-13T09:49:52.971Z,24.67
2022-12-13T09:52:25.000Z,25.37
2022-12-13T09:54:55.321Z,24.47
2022-12-13T09:57:32.079Z,18.97
2022-12-13T10:00:05.812Z,18.40
2022-12-13T10:02:48.514Z,20.53
2022-12-13T10:05:46.307Z,16.67
2022-12-13T10:08:17.811Z,17.97
2022-12-13T10:10:45.593Z,15.90
2022-12-13T10:13:27.751Z,16.53
2022-12-13T10:16:02.465Z,13.53
2022-12-13T10:18:36.045Z,23.23
2022-12-13T10:21:09.231Z,20.13
2022-12-13T10:23:59.935Z,15.40
2022-12-13T10:26:25.308Z,13.17
2022-12-13T10:29:03.965Z,19.00
2022-12-13T10:31:41.100Z,18.30
2022-12-13T10:34:21.610Z,13.77
2022-12-13T10:36:49.519Z,13.47
2022-12-13T10:39:40.038Z,20.20
2022-12-13T10:42:22.795Z,10.37
2022-12-13T10:45:23.523Z,20.27
2022-12-13T10:47:52.984Z,14.90
2022-12-13T10:50:29.249Z,16.53
2022-12-13T10:52:59.026Z,22.00
2022-12-13T10:55:34.212Z,24.77
2022-12-13T10:58:12.558Z,19.10
2022-12-13T11:00:43.063Z,20.20
2022-12-13T11:03:29.613Z,13.63
2022-12-13T11:06:15.283Z,14.20
2022-12-13T11:08:45.527Z,17.87
2022-12-13T11:11:17.901Z,16.67
2022-12-13T11:13:54.264Z,15.13
2022-12-13T11:16:26.973Z,11.80
2022-12-13T11:18:56.921Z,16.70
2022-12-13T11:21:37.006Z,32.20
2022-12-13T11:24:07.993Z,36.77
2022-12-13T11:26:39.528Z,14.10
2022-12-13T11:29:26.282Z,26.90
2022-12-13T11:32:11.158Z,16.83
2022-12-13T11:35:12.878Z,36.77
2022-12-13T11:38:03.657Z,14.07
2022-12-13T11:40:49.890Z,11.00
2022-12-13T11:43:36.198Z,25.63
2022-12-13T11:46:22.713Z,11.27
2022-12-13T11:48:59.836Z,15.40
2022-12-13T11:51:34.560Z,10.33
2022-12-13T11:54:10.903Z,12.77
2022-12-13T11:56:43.157Z,11.20
2022-12-13T11:59:40.037Z,19.13
2022-12-13T12:02:21.760Z,25.07
2022-12-13T12:04:59.682Z,28.30
2022-12-13T12:08:21.179Z,18.97
2022-12-13T12:10:50.120Z,9.10
2022-12-13T12:13:50.863Z,11.53
2022-12-13T12:16:39.545Z,14.30
2022-12-13T12:19:15.178Z,11.37
2022-12-13T12:22:13.675Z,10.83
2022-12-13T12:24:57.816Z,12.53
2022-12-13T12:27:47.248Z,23.93
2022-12-13T12:30:27.648Z,50.13
2022-12-13T12:33:09.759Z,45.00
2022-12-13T12:35:46.822Z,49.43
2022-12-13T12:38:56.558Z,56.30
2022-12-13T12:42:00.132Z,17.67
2022-12-13T12:44:43.034Z,13.27
2022-12-13T12:47:38.163Z,11.20
2022-12-13T12:50:19.477Z,18.20
2022-12-13T12:53:14.395Z,31.50
2022-12-13T12:55:49.310Z,26.30
2022-12-13T12:58:26.101Z,41.27
2022-12-13T13:01:43.956Z,16.03
2022-12-13T13:04:22.668Z,25.87
2022-12-13T13:07:04.633Z,36.87
2022-12-13T13:09:55.129Z,14.97
2022-12-13T13:12:29.713Z,15.37
2022-12-13T13:14:58.450Z,39.47
2022-12-13T13:17:26.399Z,36.00
2022-12-13T13:20:12.399Z,25.87
2022-12-13T13:22:44.263Z,28.30
2022-12-13T13:25:31.295Z,12.93
2022-12-13T13:28:06.551Z,10.17
2022-12-13T13:30:35.804Z,21.93
2022-12-13T13:33:04.172Z,18.13
2022-12-13T13:35:38.222Z,19.07
2022-12-13T13:38:48.968Z,18.27
2022-12-13T13:41:39.713Z,15.80
2022-12-13T13:44:44.929Z,13.80
2022-12-13T13:47:22.809Z,11.13
2022-12-13T13:50:13.301Z,19.47
2022-12-13T13:53:20.208Z,14.67
2022-12-13T13:56:14.764Z,16.57
2022-12-13T13:58:45.609Z,14.70
2022-12-13T14:01:51.304Z,42.60
2022-12-13T14:04:38.081Z,17.03
2022-12-13T14:07:27.177Z,18.17
2022-12-13T14:10:04.720Z,13.13
2022-12-13T14:13:07.027Z,13.33
2022-12-13T14:15:52.777Z,25.33
2022-12-13T14:18:48.519Z,18.80
2022-12-13T14:21:34.719Z,25.00
2022-12-13T14:24:17.611Z,18.13
2022-12-13T14:27:21.480Z,12.63
2022-12-13T14:29:58.420Z,15.03
2022-12-13T14:32:37.463Z,15.37
2022-12-13T14:35:25.930Z,14.10
2022-12-13T14:38:05.867Z,14.47
2022-12-13T14:40:37.712Z,19.17
2022-12-13T14:43:05.396Z,22.43
2022-12-13T14:45:38.254Z,18.93
2022-12-13T14:48:12.842Z,20.83
2022-12-13T14:50:44.100Z,17.87
2022-12-13T14:53:41.424Z,28.30
2022-12-13T14:56:28.543Z,40.17
2022-12-13T14:58:59.485Z,28.00
2022-12-13T15:01:38.575Z,25.63
2022-12-13T15:04:21.353Z,25.53
2022-12-13T15:06:56.678Z,21.70
2022-12-13T15:09:28.988Z,23.53
2022-12-13T15:12:14.966Z,22.97
2022-12-13T15:14:50.837Z,22.00
2022-12-13T15:17:40.213Z,27.17
2022-12-13T15:20:23.578Z,22.90
2022-12-13T15:23:06.283Z,24.93
2022-12-13T15:25:39.064Z,21.40
2022-12-13T15:28:08.368Z,28.77
2022-12-13T15:30:36.671Z,25.83
2022-12-13T15:33:17.388Z,27.33
2022-12-13T15:35:48.143Z,26.30
2022-12-13T15:38:28.811Z,21.93
2022-12-13T15:40:57.374Z,27.40
2022-12-13T15:43:37.751Z,23.70
2022-12-13T15:46:08.285Z,23.33
2022-12-13T15:48:39.788Z,28.40
2022-12-13T15:51:13.243Z,35.47
2022-12-13T15:54:11.984Z,104.37
2022-12-13T15:56:58.258Z,118.03
2022-12-13T15:59:28.987Z,104.53
2022-12-13T16:01:58.715Z,50.13
2022-12-13T16:04:29.782Z,46.10
2022-12-13T16:06:57.916Z,34.57
2022-12-13T16:09:38.422Z,38.13
2022-12-13T16:12:07.653Z,34.97
2022-12-13T16:14:49.238Z,28.53
2022-12-13T16:17:25.870Z,43.00
2022-12-13T16:19:55.542Z,26.40
2022-12-13T16:22:24.279Z,27.10
2022-12-13T16:24:52.975Z,27.87
2022-12-13T16:27:20.341Z,20.63
2022-12-13T16:29:48.337Z,24.73
2022-12-13T16:32:15.935Z,28.43
2022-12-13T16:34:43.807Z,27.47
2022-12-13T16:37:26.373Z,33.07
2022-12-13T16:39:56.345Z,28.73
2022-12-13T16:42:26.403Z,28.77
2022-12-13T16:45:24.865Z,25.57
2022-12-13T16:47:49.629Z,25.20
2022-12-13T16:50:20.154Z,33.00
2022-12-13T16:52:48.757Z,45.50
2022-12-13T16:55:16.780Z,40.87
2022-12-13T16:58:05.244Z,66.13
2022-12-13T17:00:33.980Z,152.47
2022-12-13T17:03:02.428Z,53.50
2022-12-13T17:05:31.431Z,71.93
2022-12-13T17:07:59.158Z,77.07
2022-12-13T17:10:27.676Z,96.10
2022-12-13T17:12:55.435Z,61.57
2022-12-13T17:15:23.265Z,59.40
2022-12-13T17:17:51.035Z,38.73
2022-12-13T17:20:19.299Z,32.90
2022-12-13T17:22:47.403Z,42.47
2022-12-13T17:25:16.892Z,38.13
2022-12-13T17:27:46.031Z,37.50
2022-12-13T17:30:19.536Z,37.57
2022-12-13T17:32:47.603Z,28.47
2022-12-13T17:35:18.598Z,28.13
2022-12-13T17:37:48.005Z,22.70
2022-12-13T17:40:17.181Z,20.17
2022-12-13T17:42:46.053Z,21.77
2022-12-13T17:45:13.828Z,25.37
2022-12-13T17:47:41.287Z,20.47
2022-12-13T17:50:09.715Z,18.17
2022-12-13T17:52:39.331Z,49.83
2022-12-13T17:55:11.211Z,34.23
2022-12-13T17:57:42.567Z,23.67
2022-12-13T18:00:11.731Z,20.97
2022-12-13T18:02:41.951Z,22.63
2022-12-13T18:05:26.377Z,25.33
2022-12-13T18:07:53.979Z,23.33
2022-12-13T18:10:26.374Z,19.70
2022-12-13T18:12:58.220Z,19.70
2022-12-13T18:15:26.389Z,19.77
2022-12-13T18:18:13.673Z,22.33
2022-12-13T18:20:42.032Z,20.63
2022-12-13T18:23:09.836Z,22.53
2022-12-13T18:25:37.883Z,23.73
2022-12-13T18:28:05.945Z,21.37
2022-12-13T18:30:34.009Z,24.53
2022-12-13T18:33:01.663Z,24.63
2022-12-13T18:35:29.775Z,24.60
2022-12-13T18:37:57.481Z,23.27
2022-12-13T18:40:25.631Z,28.57
2022-12-13T18:42:53.432Z,31.03
2022-12-13T18:45:21.517Z,38.40
2022-12-13T18:47:49.241Z,57.03
2022-12-13T18:50:17.168Z,89.43
2022-12-13T18:52:44.981Z,93.13
2022-12-13T18:55:13.578Z,76.30
2022-12-13T18:57:41.416Z,58.00
2022-12-13T19:00:12.149Z,44.07
2022-12-13T19:02:39.668Z,44.73
2022-12-13T19:05:08.105Z,29.57
2022-12-13T19:07:36.789Z,22.17
2022-12-13T19:10:05.085Z,27.03
2022-12-13T19:12:32.584Z,22.13
2022-12-13T19:15:01.053Z,24.20
2022-12-13T19:17:28.971Z,22.60
2022-12-13T19:19:56.895Z,17.10
2022-12-13T19:22:24.790Z,20.07
2022-12-13T19:24:52.866Z,18.13
2022-12-13T19:27:20.523Z,19.17
2022-12-13T19:29:48.787Z,17.70
2022-12-13T19:32:16.510Z,22.27
2022-12-13T19:34:44.784Z,27.37
2022-12-13T19:37:12.219Z,33.83
2022-12-13T19:39:41.542Z,45.53
2022-12-13T19:42:09.073Z,43.17
2022-12-13T19:44:36.786Z,42.93
2022-12-13T19:47:04.194Z,34.60
2022-12-13T19:49:31.893Z,32.67
2022-12-13T19:52:00.432Z,25.30
2022-12-13T19:54:28.578Z,21.77
2022-12-13T19:56:59.227Z,25.70
2022-12-13T19:59:30.607Z,26.23
2022-12-13T20:02:00.905Z,22.03
2022-12-13T20:04:29.375Z,28.40
2022-12-13T20:06:57.465Z,27.73
2022-12-13T20:09:25.626Z,26.47
2022-12-13T20:11:54.241Z,22.90
2022-12-13T20:14:22.232Z,25.20
2022-12-13T20:16:49.883Z,29.40
2022-12-13T20:19:18.242Z,37.83
2022-12-13T20:21:46.638Z,25.20
2022-12-13T20:24:14.518Z,31.13
2022-12-13T20:26:42.047Z,33.77
2022-12-13T20:29:11.126Z,27.70
2022-12-13T20:31:40.209Z,28.57
2022-12-13T20:34:15.060Z,31.53
2022-12-13T20:36:43.306Z,30.93
2022-12-13T20:39:13.516Z,31.40
2022-12-13T20:41:41.831Z,28.57
2022-12-13T20:44:12.527Z,28.47
2022-12-13T20:46:40.624Z,28.57
2022-12-13T20:49:10.261Z,32.33
2022-12-13T20:51:40.422Z,32.00
2022-12-13T20:54:09.284Z,31.23
2022-12-13T20:56:38.676Z,33.20
2022-12-13T20:59:09.423Z,33.00
2022-12-13T21:01:38.797Z,37.13
2022-12-13T21:04:09.204Z,35.23
2022-12-13T21:06:39.873Z,33.83
2022-12-13T21:09:09.377Z,34.77
2022-12-13T21:11:43.148Z,37.40
2022-12-13T21:14:18.796Z,35.07
2022-12-13T21:16:52.762Z,43.33
2022-12-13T21:19:27.355Z,38.37
2022-12-13T21:21:56.307Z,36.20
2022-12-13T21:24:25.856Z,40.87
2022-12-13T21:26:56.684Z,36.20
2022-12-13T21:29:27.508Z,40.27
2022-12-13T21:31:55.439Z,43.40
2022-12-13T21:34:24.495Z,41.23
2022-12-13T21:36:53.038Z,37.20
2022-12-13T21:39:25.546Z,42.97
2022-12-13T21:41:54.817Z,36.77
2022-12-13T21:44:24.368Z,40.03
2022-12-13T21:47:11.830Z,39.00
2022-12-13T21:49:41.354Z,36.37
2022-12-13T21:52:09.530Z,42.17
2022-12-13T21:54:38.374Z,35.73
2022-12-13T21:57:25.845Z,40.80
2022-12-13T21:59:53.733Z,43.00
2022-12-13T22:02:22.496Z,39.73
2022-12-13T22:04:55.911Z,38.93
2022-12-13T22:07:27.554Z,40.13
2022-12-13T22:09:56.380Z,41.00
2022-12-13T22:12:32.709Z,43.30
2022-12-13T22:15:01.915Z,44.50
2022-12-13T22:17:35.136Z,45.53
2022-12-13T22:20:06.396Z,46.67
2022-12-13T22:22:33.821Z,47.17
2022-12-13T22:25:01.577Z,46.30
2022-12-13T22:27:28.978Z,46.37
2022-12-13T22:29:57.778Z,49.97
2022-12-13T22:32:27.618Z,47.00
2022-12-13T22:34:56.244Z,49.43
2022-12-13T22:37:25.076Z,51.83
2022-12-13T22:39:53.093Z,47.47
2022-12-13T22:42:21.211Z,52.43
2022-12-13T22:44:49.960Z,51.50
2022-12-13T22:47:18.895Z,53.87
2022-12-13T22:49:48.693Z,51.10
2022-12-13T22:52:17.811Z,56.43
2022-12-13T22:54:45.444Z,54.77
2022-12-13T22:57:12.903Z,55.13
2022-12-13T22:59:40.593Z,53.50
2022-12-13T23:02:09.949Z,55.17
2022-12-13T23:04:38.886Z,52.80
2022-12-13T23:07:06.415Z,56.67
2022-12-13T23:09:34.006Z,58.53
2022-12-13T23:12:20.188Z,55.57
2022-12-13T23:14:48.056Z,51.07
2022-12-13T23:17:15.349Z,53.73
2022-12-13T23:19:49.473Z,52.87
2022-12-13T23:22:20.840Z,49.80
2022-12-13T23:24:49.449Z,55.00
2022-12-13T23:27:17.076Z,55.27
2022-12-13T23:29:44.977Z,55.20
2022-12-13T23:32:12.739Z,49.53
2022-12-13T23:34:40.360Z,52.63
2022-12-13T23:37:07.837Z,50.73
2022-12-13T23:39:37.759Z,59.47
2022-12-13T23:42:05.151Z,56.33
2022-12-13T23:44:32.776Z,58.90
2022-12-13T23:47:00.262Z,59.73
2022-12-13T23:49:27.912Z,54.90
2022-12-13T23:51:55.373Z,52.00
2022-12-13T23:54:22.999Z,60.20
2022-12-13T23:56:50.373Z,56.67
2022-12-13T23:59:19.044Z,48.30
